createdAt,value
2018-07-26T00:01:50.472Z,22.20
2018-07-26T00:04:19.204Z,22.10
2018-07-26T00:06:47.838Z,22.10
2018-07-26T00:09:16.481Z,21.90
2018-07-26T00:11:45.097Z,21.90
2018-07-26T00:14:13.773Z,21.90
2018-07-26T00:16:42.438Z,22.00
2018-07-26T00:21:39.230Z,22.00
2018-07-26T00:24:07.892Z,21.90
2018-07-26T00:26:36.853Z,21.90
2018-07-26T00:29:05.573Z,21.90
2018-07-26T00:31:34.503Z,21.80
2018-07-26T00:34:03.254Z,21.90
2018-07-26T00:36:32.000Z,21.90
2018-07-26T00:39:00.808Z,21.80
2018-07-26T00:41:29.427Z,21.80
2018-07-26T00:43:58.092Z,21.80
2018-07-26T00:46:26.633Z,21.80
2018-07-26T00:48:55.494Z,21.70
2018-07-26T00:51:24.164Z,21.70
2018-07-26T00:53:52.896Z,21.60
2018-07-26T00:56:21.580Z,21.60
2018-07-26T00:58:50.096Z,21.60
2018-07-26T01:01:18.990Z,21.60
2018-07-26T01:03:48.624Z,21.50
2018-07-26T01:06:17.441Z,21.50
2018-07-26T01:08:46.154Z,21.50
2018-07-26T01:11:14.675Z,21.50
2018-07-26T01:13:43.709Z,21.50
2018-07-26T01:16:12.386Z,21.50
2018-07-26T01:18:41.209Z,21.40
2018-07-26T01:21:10.016Z,21.50
2018-07-26T01:23:39.077Z,21.60
2018-07-26T01:26:08.012Z,21.60
2018-07-26T01:28:36.688Z,21.50
2018-07-26T01:31:05.564Z,21.50
2018-07-26T01:33:34.206Z,21.40
2018-07-26T01:36:02.881Z,21.40
2018-07-26T01:38:31.615Z,21.30
2018-07-26T01:41:00.416Z,21.30
2018-07-26T01:43:51.094Z,21.20
2018-07-26T01:46:21.108Z,21.20
2018-07-26T01:48:49.870Z,21.20
2018-07-26T01:51:18.664Z,21.20
2018-07-26T01:53:47.514Z,21.10
2018-07-26T01:56:16.299Z,21.10
2018-07-26T01:58:44.830Z,21.00
2018-07-26T02:01:14.055Z,21.00
2018-07-26T02:03:43.640Z,21.10
2018-07-26T02:06:12.202Z,21.10
2018-07-26T02:08:40.886Z,21.10
2018-07-26T02:11:09.692Z,21.00
2018-07-26T02:13:38.480Z,21.10
2018-07-26T02:16:07.250Z,21.10
2018-07-26T02:18:35.928Z,21.20
2018-07-26T02:21:05.356Z,21.20
2018-07-26T02:23:34.115Z,21.30
2018-07-26T02:26:02.772Z,21.30
2018-07-26T02:28:32.403Z,21.30
2018-07-26T02:31:01.529Z,21.40
2018-07-26T02:33:30.162Z,21.20
2018-07-26T02:35:58.900Z,21.20
2018-07-26T02:38:28.129Z,21.30
2018-07-26T02:40:56.721Z,21.30
2018-07-26T02:43:25.403Z,21.20
2018-07-26T02:45:54.018Z,21.20
2018-07-26T02:48:22.754Z,21.10
2018-07-26T02:50:51.374Z,21.00
2018-07-26T02:53:20.075Z,21.00
2018-07-26T02:55:48.713Z,20.90
2018-07-26T02:58:17.286Z,20.80
2018-07-26T03:00:45.884Z,20.70
2018-07-26T03:03:14.597Z,20.70
2018-07-26T03:05:43.333Z,20.80
2018-07-26T03:08:12.114Z,20.80
2018-07-26T03:10:40.836Z,20.80
2018-07-26T03:13:10.217Z,20.80
2018-07-26T03:15:38.893Z,20.90
2018-07-26T03:18:07.470Z,20.90
2018-07-26T03:20:36.117Z,21.00
2018-07-26T03:23:04.821Z,21.00
2018-07-26T03:25:33.609Z,21.00
2018-07-26T03:28:02.188Z,21.00
2018-07-26T03:30:30.868Z,21.10
2018-07-26T03:32:59.568Z,21.10
2018-07-26T03:35:28.342Z,21.10
2018-07-26T03:37:57.103Z,21.00
2018-07-26T03:40:25.638Z,21.00
2018-07-26T03:42:54.177Z,21.00
2018-07-26T03:45:22.800Z,21.00
2018-07-26T03:47:51.473Z,20.90
2018-07-26T03:50:20.159Z,20.90
2018-07-26T03:52:48.867Z,20.80
2018-07-26T03:55:17.467Z,20.90
2018-07-26T03:57:46.274Z,20.80
2018-07-26T04:00:14.998Z,20.80
2018-07-26T04:02:43.746Z,20.70
2018-07-26T04:05:12.537Z,20.70
2018-07-26T04:07:41.400Z,20.60
2018-07-26T04:10:10.117Z,20.60
2018-07-26T04:12:38.764Z,20.60
2018-07-26T04:15:07.654Z,20.70
2018-07-26T04:17:36.550Z,20.70
2018-07-26T04:20:05.554Z,20.60
2018-07-26T04:22:34.225Z,20.60
2018-07-26T04:25:02.816Z,20.60
2018-07-26T04:27:31.593Z,20.60
2018-07-26T04:30:00.205Z,20.60
2018-07-26T04:32:28.732Z,20.60
2018-07-26T04:34:57.528Z,20.70
2018-07-26T04:37:26.198Z,20.70
2018-07-26T04:39:54.748Z,20.70
2018-07-26T04:42:23.336Z,20.70
2018-07-26T04:44:51.893Z,20.80
2018-07-26T04:47:20.576Z,20.90
2018-07-26T04:49:49.330Z,20.90
2018-07-26T04:52:18.032Z,20.90
2018-07-26T04:54:46.629Z,20.90
2018-07-26T04:57:15.262Z,21.00
2018-07-26T04:59:43.940Z,21.00
2018-07-26T05:02:12.481Z,21.10
2018-07-26T05:04:41.437Z,21.20
2018-07-26T05:07:10.173Z,21.20
2018-07-26T05:09:38.729Z,21.30
2018-07-26T05:12:07.507Z,21.30
2018-07-26T05:14:36.121Z,21.30
2018-07-26T05:17:04.793Z,21.40
2018-07-26T05:19:33.397Z,21.40
2018-07-26T05:22:03.013Z,21.50
2018-07-26T05:24:31.847Z,21.60
2018-07-26T05:27:00.502Z,21.70
2018-07-26T05:29:29.318Z,21.80
2018-07-26T05:31:57.960Z,21.90
2018-07-26T05:34:26.688Z,22.00
2018-07-26T05:36:55.463Z,22.00
2018-07-26T05:39:24.163Z,22.20
2018-07-26T05:41:53.657Z,22.20
2018-07-26T05:44:22.376Z,22.40
2018-07-26T05:46:51.212Z,22.40
2018-07-26T05:49:19.888Z,22.60
2018-07-26T05:51:48.420Z,22.60
2018-07-26T05:54:17.879Z,22.70
2018-07-26T05:56:46.568Z,22.70
2018-07-26T05:59:15.433Z,22.80
2018-07-26T06:01:44.114Z,22.90
2018-07-26T06:04:12.673Z,22.90
2018-07-26T06:11:40.278Z,23.10
2018-07-26T06:14:08.910Z,23.20
2018-07-26T06:16:37.469Z,23.20
2018-07-26T06:19:06.161Z,23.30
2018-07-26T06:21:34.814Z,23.30
2018-07-26T06:24:03.443Z,23.50
2018-07-26T06:26:32.328Z,23.60
2018-07-26T06:29:01.100Z,23.70
2018-07-26T06:31:29.733Z,23.90
2018-07-26T06:33:58.362Z,24.20
2018-07-26T06:36:26.892Z,24.80
2018-07-26T06:38:55.688Z,25.50
2018-07-26T06:41:24.286Z,26.20
2018-07-26T06:43:52.869Z,26.80
2018-07-26T06:46:21.575Z,27.30
2018-07-26T06:48:50.150Z,27.70
2018-07-26T06:51:19.145Z,28.30
2018-07-26T06:53:48.057Z,28.50
2018-07-26T06:56:16.795Z,28.90
2018-07-26T06:58:45.609Z,29.10
2018-07-26T07:01:14.724Z,29.20
2018-07-26T07:03:43.334Z,29.30
2018-07-26T07:06:11.993Z,29.50
2018-07-26T07:08:40.847Z,29.30
2018-07-26T07:11:09.456Z,29.20
2018-07-26T07:13:38.073Z,29.10
2018-07-26T07:16:06.671Z,29.30
2018-07-26T07:18:35.425Z,29.40
2018-07-26T07:21:05.112Z,29.50
2018-07-26T07:23:33.830Z,29.50
2018-07-26T07:26:02.408Z,29.60
2018-07-26T07:28:32.013Z,29.70
2018-07-26T07:31:00.704Z,29.60
2018-07-26T07:35:57.536Z,29.90
2018-07-26T07:38:26.109Z,29.80
2018-07-26T07:40:54.836Z,29.80
2018-07-26T07:43:23.742Z,29.80
2018-07-26T07:45:52.370Z,30.00
2018-07-26T07:48:20.936Z,30.20
2018-07-26T07:50:49.595Z,30.30
2018-07-26T07:53:18.600Z,30.50
2018-07-26T07:55:47.150Z,30.60
2018-07-26T07:58:15.831Z,30.70
2018-07-26T08:00:44.401Z,30.90
2018-07-26T08:03:12.914Z,30.90
2018-07-26T08:05:41.432Z,31.00
2018-07-26T08:08:10.076Z,31.10
2018-07-26T08:10:38.666Z,31.30
2018-07-26T08:13:07.256Z,31.20
2018-07-26T08:15:35.978Z,31.00
2018-07-26T08:18:04.987Z,31.00
2018-07-26T08:20:33.649Z,30.90
2018-07-26T08:23:02.353Z,31.00
2018-07-26T08:25:31.104Z,31.20
2018-07-26T08:27:59.788Z,31.30
2018-07-26T08:30:28.493Z,31.40
2018-07-26T08:32:57.047Z,31.40
2018-07-26T08:35:25.603Z,31.60
2018-07-26T08:37:54.234Z,31.60
2018-07-26T08:40:22.811Z,31.70
2018-07-26T08:42:51.442Z,31.80
2018-07-26T08:45:20.187Z,31.90
2018-07-26T08:47:48.997Z,31.90
2018-07-26T08:50:17.633Z,32.00
2018-07-26T08:52:46.456Z,32.10
2018-07-26T08:55:15.860Z,32.20
2018-07-26T08:57:45.684Z,32.30
2018-07-26T09:00:17.675Z,32.30
2018-07-26T09:02:47.074Z,32.30
2018-07-26T09:05:16.358Z,32.40
2018-07-26T09:07:45.704Z,32.20
2018-07-26T09:10:15.343Z,32.20
2018-07-26T09:12:43.913Z,32.30
2018-07-26T09:15:12.824Z,32.50
2018-07-26T09:17:41.318Z,32.50
2018-07-26T09:20:10.085Z,32.50
2018-07-26T09:22:39.181Z,32.50
2018-07-26T09:27:36.064Z,32.80
2018-07-26T09:30:06.885Z,32.90
2018-07-26T09:32:35.518Z,32.80
2018-07-26T09:35:04.221Z,32.90
2018-07-26T09:37:32.837Z,33.10
2018-07-26T09:42:29.761Z,33.00
2018-07-26T09:44:58.332Z,33.00
2018-07-26T09:47:26.993Z,33.20
2018-07-26T09:49:55.823Z,33.20
2018-07-26T09:52:24.396Z,33.20
2018-07-26T09:54:52.927Z,33.30
2018-07-26T09:57:21.484Z,33.30
2018-07-26T09:59:49.968Z,33.30
2018-07-26T10:04:46.788Z,33.50
2018-07-26T10:07:15.336Z,33.50
2018-07-26T10:09:43.859Z,33.60
2018-07-26T10:12:13.484Z,33.80
2018-07-26T10:14:42.021Z,33.80
2018-07-26T10:17:10.788Z,33.80
2018-07-26T10:19:39.357Z,33.80
2018-07-26T10:22:07.911Z,33.80
2018-07-26T10:24:36.440Z,33.90
2018-07-26T10:27:05.013Z,34.10
2018-07-26T10:29:33.544Z,33.90
2018-07-26T10:32:02.239Z,34.00
2018-07-26T10:34:30.825Z,34.00
2018-07-26T10:36:59.400Z,34.10
2018-07-26T10:39:28.172Z,34.20
2018-07-26T10:41:56.703Z,34.20
2018-07-26T10:44:25.507Z,34.20
2018-07-26T10:46:54.004Z,34.10
2018-07-26T10:49:22.613Z,33.80
2018-07-26T10:51:51.221Z,33.70
2018-07-26T10:54:19.956Z,33.70
2018-07-26T10:56:48.644Z,33.80
2018-07-26T10:59:17.204Z,34.10
2018-07-26T11:01:45.879Z,34.20
2018-07-26T11:04:14.435Z,34.10
2018-07-26T11:06:43.013Z,34.10
2018-07-26T11:09:11.533Z,34.30
2018-07-26T11:11:40.041Z,34.50
2018-07-26T11:14:08.944Z,34.80
2018-07-26T11:16:37.748Z,34.70
2018-07-26T11:19:06.312Z,34.70
2018-07-26T11:21:34.920Z,34.60
2018-07-26T11:24:03.480Z,34.60
2018-07-26T11:26:32.052Z,34.70
2018-07-26T11:29:00.569Z,34.80
2018-07-26T11:31:29.091Z,34.70
2018-07-26T11:33:57.588Z,34.80
2018-07-26T11:36:26.397Z,34.50
2018-07-26T11:38:54.924Z,34.30
2018-07-26T11:41:23.483Z,34.50
2018-07-26T11:43:51.989Z,34.60
2018-07-26T11:46:20.484Z,34.80
2018-07-26T11:48:48.969Z,34.60
2018-07-26T11:51:17.476Z,34.60
2018-07-26T11:53:45.956Z,34.50
2018-07-26T11:56:14.429Z,34.50
2018-07-26T11:58:43.629Z,34.30
2018-07-26T12:01:12.141Z,34.20
2018-07-26T12:03:40.711Z,34.10
2018-07-26T12:06:09.248Z,34.10
2018-07-26T12:11:28.892Z,34.00
2018-07-26T12:13:57.519Z,34.10
2018-07-26T12:16:26.284Z,34.10
2018-07-26T12:18:54.930Z,34.10
2018-07-26T12:21:23.514Z,34.10
2018-07-26T12:23:52.063Z,34.00
2018-07-26T12:26:20.737Z,33.70
2018-07-26T12:28:49.313Z,33.50
2018-07-26T12:31:18.001Z,33.20
2018-07-26T12:33:47.639Z,33.10
2018-07-26T12:36:16.190Z,32.80
2018-07-26T12:38:44.696Z,32.70
2018-07-26T12:41:13.715Z,32.70
2018-07-26T12:43:42.245Z,32.80
2018-07-26T12:46:10.880Z,32.70
2018-07-26T12:48:39.931Z,32.80
2018-07-26T12:53:37.258Z,32.50
2018-07-26T12:56:05.861Z,32.50
2018-07-26T12:58:34.444Z,32.20
2018-07-26T13:01:04.029Z,32.00
2018-07-26T13:03:32.724Z,31.70
2018-07-26T13:06:01.444Z,31.50
2018-07-26T13:08:30.113Z,31.50
2018-07-26T13:10:58.706Z,31.50
2018-07-26T13:13:27.271Z,31.50
2018-07-26T13:15:55.830Z,31.50
2018-07-26T13:18:24.367Z,31.30
2018-07-26T13:20:53.076Z,30.90
2018-07-26T13:23:21.760Z,30.60
2018-07-26T13:25:50.540Z,30.50
2018-07-26T13:28:19.820Z,30.40
2018-07-26T13:30:48.328Z,30.30
2018-07-26T13:33:16.921Z,30.30
2018-07-26T13:35:45.429Z,30.30
2018-07-26T13:38:14.393Z,30.30
2018-07-26T13:40:43.164Z,30.10
2018-07-26T13:43:11.911Z,30.00
2018-07-26T13:45:40.865Z,30.00
2018-07-26T13:48:09.490Z,29.90
2018-07-26T13:50:38.304Z,30.00
2018-07-26T13:55:35.434Z,30.30
2018-07-26T13:58:04.133Z,30.50
2018-07-26T14:00:32.912Z,30.70
2018-07-26T14:03:01.683Z,30.70
2018-07-26T14:05:30.436Z,30.80
2018-07-26T14:08:00.235Z,30.80
2018-07-26T14:10:28.754Z,30.90
2018-07-26T14:12:57.851Z,30.90
2018-07-26T14:15:26.813Z,31.00
2018-07-26T14:17:55.661Z,31.00
2018-07-26T14:20:24.254Z,30.80
2018-07-26T14:22:52.900Z,30.70
2018-07-26T14:25:21.427Z,30.70
2018-07-26T14:27:50.460Z,30.80
2018-07-26T14:30:19.242Z,30.80
2018-07-26T14:32:47.965Z,31.00
2018-07-26T14:37:45.301Z,31.20
2018-07-26T14:40:13.939Z,31.30
2018-07-26T14:42:42.563Z,31.30
2018-07-26T14:45:11.863Z,31.40
2018-07-26T14:47:40.876Z,31.40
2018-07-26T14:50:09.890Z,31.40
2018-07-26T14:52:38.439Z,31.30
2018-07-26T14:55:07.175Z,31.30
2018-07-26T14:57:35.912Z,31.30
2018-07-26T15:00:05.316Z,31.30
2018-07-26T15:02:33.878Z,30.90
2018-07-26T15:05:02.777Z,30.90
2018-07-26T15:07:31.524Z,30.90
2018-07-26T15:10:00.398Z,31.00
2018-07-26T15:12:29.049Z,31.00
2018-07-26T15:14:57.623Z,30.90
2018-07-26T15:17:26.301Z,30.80
2018-07-26T15:19:54.901Z,30.60
2018-07-26T15:22:24.163Z,30.60
2018-07-26T15:24:52.702Z,30.60
2018-07-26T15:27:21.716Z,30.60
2018-07-26T15:29:50.450Z,30.40
2018-07-26T15:32:19.018Z,30.40
2018-07-26T15:34:47.933Z,30.40
2018-07-26T15:37:16.549Z,30.50
2018-07-26T15:39:45.200Z,30.50
2018-07-26T15:42:13.830Z,30.50
2018-07-26T15:44:42.805Z,30.50
2018-07-26T15:47:11.495Z,30.30
2018-07-26T15:49:40.019Z,30.20
2018-07-26T15:52:08.869Z,30.30
2018-07-26T15:54:37.381Z,30.30
2018-07-26T15:57:06.541Z,30.30
2018-07-26T15:59:35.166Z,30.40
2018-07-26T16:02:03.971Z,30.50
2018-07-26T16:04:32.568Z,30.40
2018-07-26T16:07:01.214Z,30.50
2018-07-26T16:09:29.918Z,30.50
2018-07-26T16:11:58.597Z,30.60
2018-07-26T16:14:27.395Z,30.60
2018-07-26T16:16:56.090Z,30.60
2018-07-26T16:19:24.768Z,30.40
2018-07-26T16:21:53.463Z,30.40
2018-07-26T16:24:22.812Z,30.40
2018-07-26T16:26:51.385Z,30.30
2018-07-26T16:29:20.110Z,30.20
2018-07-26T16:31:48.928Z,30.30
2018-07-26T16:34:18.839Z,30.30
2018-07-26T16:39:15.669Z,30.40
2018-07-26T16:41:44.272Z,30.40
2018-07-26T16:44:12.857Z,30.60
2018-07-26T16:49:09.881Z,30.70
2018-07-26T16:51:38.607Z,30.60
2018-07-26T16:54:11.000Z,30.50
2018-07-26T16:56:39.828Z,30.60
2018-07-26T16:59:08.687Z,30.70
2018-07-26T17:01:37.197Z,30.80
2018-07-26T17:04:05.958Z,30.80
2018-07-26T17:06:34.584Z,30.80
2018-07-26T17:09:03.194Z,30.90
2018-07-26T17:11:31.823Z,31.00
2018-07-26T17:14:00.429Z,31.10
2018-07-26T17:16:29.110Z,31.30
2018-07-26T17:18:57.973Z,31.30
2018-07-26T17:21:26.764Z,31.30
2018-07-26T17:23:55.401Z,31.40
2018-07-26T17:26:24.000Z,31.40
2018-07-26T17:28:52.964Z,31.40
2018-07-26T17:31:21.552Z,31.20
2018-07-26T17:33:50.729Z,31.20
2018-07-26T17:36:19.634Z,31.10
2018-07-26T17:38:48.293Z,31.10
2018-07-26T17:41:17.642Z,31.10
2018-07-26T17:43:46.471Z,30.80
2018-07-26T17:46:15.247Z,30.60
2018-07-26T17:48:44.055Z,30.60
2018-07-26T17:51:12.683Z,30.60
2018-07-26T17:53:41.206Z,30.40
2018-07-26T17:56:10.542Z,30.40
2018-07-26T17:58:39.225Z,30.40
2018-07-26T18:01:08.065Z,30.30
2018-07-26T18:03:36.577Z,30.30
2018-07-26T18:06:05.433Z,30.40
2018-07-26T18:08:34.009Z,30.40
2018-07-26T18:11:03.360Z,30.40
2018-07-26T18:13:32.199Z,30.10
2018-07-26T18:16:00.764Z,30.10
2018-07-26T18:18:29.450Z,30.00
2018-07-26T18:20:58.041Z,30.10
2018-07-26T18:23:26.690Z,30.30
2018-07-26T18:25:55.478Z,30.20
2018-07-26T18:28:24.068Z,30.10
2018-07-26T18:30:52.969Z,30.10
2018-07-26T18:33:21.608Z,30.00
2018-07-26T18:35:50.237Z,29.90
2018-07-26T18:38:18.972Z,29.80
2018-07-26T18:40:47.610Z,29.80
2018-07-26T18:43:16.216Z,29.80
2018-07-26T18:45:44.979Z,29.70
2018-07-26T18:48:13.592Z,29.70
2018-07-26T18:50:45.294Z,29.60
2018-07-26T18:53:13.936Z,29.40
2018-07-26T18:55:42.549Z,29.40
2018-07-26T18:58:11.561Z,29.30
2018-07-26T19:00:40.202Z,29.30
2018-07-26T19:03:09.096Z,29.30
2018-07-26T19:05:37.881Z,29.20
2018-07-26T19:08:06.980Z,29.20
2018-07-26T19:10:35.623Z,29.10
2018-07-26T19:13:04.287Z,29.00
2018-07-26T19:15:33.200Z,28.90
2018-07-26T19:18:01.771Z,28.80
2018-07-26T19:20:30.560Z,28.80
2018-07-26T19:22:59.188Z,28.70
2018-07-26T19:27:58.887Z,28.50
2018-07-26T19:30:27.508Z,28.50
2018-07-26T19:32:56.087Z,28.40
2018-07-26T19:35:24.639Z,28.30
2018-07-26T19:37:53.353Z,28.30
2018-07-26T19:40:21.991Z,28.20
2018-07-26T19:42:50.831Z,28.20
2018-07-26T19:45:19.561Z,28.10
2018-07-26T19:47:48.150Z,28.10
2018-07-26T19:50:16.639Z,28.00
2018-07-26T19:52:45.304Z,28.00
2018-07-26T19:55:15.066Z,28.00
2018-07-26T19:57:43.869Z,28.00
2018-07-26T20:00:12.523Z,27.90
2018-07-26T20:02:41.153Z,27.90
2018-07-26T20:05:10.137Z,27.90
2018-07-26T20:07:39.581Z,27.90
2018-07-26T20:10:11.328Z,28.00
2018-07-26T20:12:40.404Z,27.90
2018-07-26T20:15:09.208Z,27.80
2018-07-26T20:17:38.000Z,27.70
2018-07-26T20:20:11.084Z,27.50
2018-07-26T20:22:40.072Z,27.50
2018-07-26T20:25:08.653Z,27.10
2018-07-26T20:27:37.266Z,27.00
2018-07-26T20:30:07.576Z,26.90
2018-07-26T20:32:36.603Z,26.90
2018-07-26T20:35:06.227Z,26.80
2018-07-26T20:37:34.785Z,26.70
2018-07-26T20:40:03.380Z,26.60
2018-07-26T20:42:32.098Z,26.50
2018-07-26T20:45:00.693Z,26.40
2018-07-26T20:47:29.488Z,26.40
2018-07-26T20:49:58.247Z,26.30
2018-07-26T20:52:26.813Z,26.30
2018-07-26T20:54:55.332Z,26.20
2018-07-26T20:57:23.932Z,26.20
2018-07-26T20:59:52.536Z,26.20
2018-07-26T21:02:21.232Z,26.10
2018-07-26T21:04:49.748Z,26.10
2018-07-26T21:07:18.350Z,26.10
2018-07-26T21:09:47.095Z,26.10
2018-07-26T21:12:15.888Z,26.00
2018-07-26T21:14:44.455Z,26.10
2018-07-26T21:17:12.995Z,26.10
2018-07-26T21:19:41.501Z,26.00
2018-07-26T21:22:11.061Z,25.90
2018-07-26T21:24:39.718Z,25.80
2018-07-26T21:27:08.317Z,25.80
2018-07-26T21:29:36.911Z,25.60
2018-07-26T21:32:05.668Z,25.20
2018-07-26T21:34:34.238Z,25.00
2018-07-26T21:37:03.126Z,24.90
2018-07-26T21:39:32.839Z,24.90
2018-07-26T21:42:01.492Z,24.90
2018-07-26T21:44:30.109Z,24.80
2018-07-26T21:46:58.828Z,24.80
2018-07-26T21:49:27.419Z,24.70
2018-07-26T21:51:56.025Z,24.70
2018-07-26T21:54:24.657Z,24.70
2018-07-26T21:56:53.229Z,24.70
2018-07-26T21:59:22.551Z,24.60
2018-07-26T22:01:51.549Z,24.60
2018-07-26T22:04:20.872Z,24.60
2018-07-26T22:06:49.575Z,24.50
2018-07-26T22:09:18.158Z,24.50
2018-07-26T22:11:47.064Z,24.50
2018-07-26T22:14:15.626Z,24.40
2018-07-26T22:16:44.202Z,24.40
2018-07-26T22:19:12.918Z,24.40
2018-07-26T22:21:41.923Z,24.40
2018-07-26T22:24:10.494Z,24.40
2018-07-26T22:26:39.050Z,24.40
2018-07-26T22:31:36.258Z,24.70
2018-07-26T22:34:04.782Z,24.60
2018-07-26T22:36:33.397Z,24.60
2018-07-26T22:39:01.936Z,24.50
2018-07-26T22:41:30.656Z,24.40
2018-07-26T22:43:59.319Z,24.30
2018-07-26T22:46:27.835Z,24.20
2018-07-26T22:48:56.552Z,24.10
2018-07-26T22:51:25.164Z,24.10
2018-07-26T22:53:53.837Z,24.10
2018-07-26T22:58:50.729Z,24.10
2018-07-26T23:01:19.294Z,24.10
2018-07-26T23:06:16.178Z,24.10
2018-07-26T23:08:45.434Z,24.20
2018-07-26T23:11:14.453Z,24.10
2018-07-26T23:13:43.130Z,24.00
2018-07-26T23:16:11.758Z,24.00
2018-07-26T23:18:40.318Z,23.90
2018-07-26T23:21:08.957Z,23.80
2018-07-26T23:23:38.485Z,23.70
2018-07-26T23:26:07.231Z,23.60
2018-07-26T23:28:35.847Z,23.50
2018-07-26T23:33:32.603Z,23.50
2018-07-26T23:38:29.462Z,23.30
2018-07-26T23:40:58.250Z,23.20
2018-07-26T23:45:55.099Z,23.10
2018-07-26T23:48:23.757Z,23.10
2018-07-26T23:50:52.428Z,23.00
2018-07-26T23:53:21.220Z,23.00
2018-07-26T23:55:49.772Z,23.00
2018-07-26T23:58:18.536Z,22.90
